Time;durP1;ratioP1;P1;durP2;ratioP2;P2;SDS_P1;SDS_P2;PMS_P1;PMS_P2;Temp;Humidity;BMP_temperature;BMP_pressure;BME280_temperature;BME280_humidity;BME280_pressure;Samples;Min_cycle;Max_cycle;Signal;HPM_P1;HPM_P2
2022/12/18 00:00:43;;;;;;;;;56.00;39.50;;;;;0.93;53.27;101835.25;5038640;28;45194;-65
2022/12/18 00:03:09;;;;;;;;;62.00;41.25;;;;;0.99;53.03;101841.44;5045240;28;45823;-64
2022/12/18 00:05:34;;;;;;;;;58.25;41.25;;;;;1.03;53.01;101832.97;5040033;28;45290;-64
2022/12/18 00:08:00;;;;;;;;;50.75;41.00;;;;;1.05;52.95;101833.91;5042939;28;46078;-64
2022/12/18 00:10:25;;;;;;;;;48.67;38.67;;;;;1.09;52.44;101830.56;5049464;28;58803;-64
2022/12/18 00:12:50;;;;;;;;;51.00;41.25;;;;;1.09;52.80;101826.28;5045371;28;47364;-64
2022/12/18 00:15:16;;;;;;;;;35.75;20.25;;;;;1.12;52.59;101828.09;5042113;28;58578;-64
2022/12/18 00:17:41;;;;;;;;;57.50;44.25;;;;;1.13;52.74;101823.00;5050282;28;45459;-65
2022/12/18 00:20:07;;;;;;;;;46.50;37.75;;;;;1.18;52.91;101822.25;5044687;28;59543;-66
2022/12/18 00:22:33;;;;;;;;;51.25;39.75;;;;;1.23;52.52;101825.81;5042320;28;45419;-64
2022/12/18 00:24:58;;;;;;;;;54.00;42.25;;;;;1.25;52.76;101821.59;5039745;28;63878;-64
2022/12/18 00:27:23;;;;;;;;;57.00;40.00;;;;;1.27;52.43;101820.78;5041141;28;67079;-62
2022/12/18 00:29:49;;;;;;;;;52.33;37.67;;;;;1.31;52.54;101830.38;5046344;28;61532;-63
2022/12/18 00:32:14;;;;;;;;;45.00;35.75;;;;;1.28;52.10;101812.22;5043726;28;45565;-63
2022/12/18 00:34:39;;;;;;;;;51.75;38.00;;;;;1.36;52.41;101825.31;5041062;28;53571;-63
2022/12/18 00:37:05;;;;;;;;;50.50;37.00;;;;;1.43;52.37;101835.00;5047120;28;60742;-63
2022/12/18 00:39:30;;;;;;;;;63.50;40.00;;;;;1.47;52.22;101838.53;5052601;28;60042;-63
2022/12/18 00:44:39;;;;;;;;;55.75;41.50;;;;;1.41;52.08;101839.22;5049634;28;45628;-63
2022/12/18 00:47:05;;;;;;;;;45.67;37.33;;;;;1.41;51.90;101835.78;5046949;28;59679;-63
2022/12/18 00:49:30;;;;;;;;;57.75;39.00;;;;;1.43;51.69;101842.72;5048137;28;66465;-63
2022/12/18 00:51:55;;;;;;;;;40.25;34.50;;;;;1.44;52.21;101838.47;5042521;28;60925;-63
2022/12/18 00:54:21;;;;;;;;;61.75;42.00;;;;;1.41;51.77;101828.91;5049363;28;59347;-63
2022/12/18 00:56:46;;;;;;;;;46.25;37.50;;;;;1.37;52.13;101823.66;5057030;28;66692;-63
2022/12/18 00:59:11;;;;;;;;;45.50;39.25;;;;;1.36;51.90;101824.47;5044038;28;47413;-63
2022/12/18 01:01:37;;;;;;;;;50.50;43.00;;;;;1.39;52.25;101828.00;5044305;28;58616;-63
2022/12/18 01:04:03;;;;;;;;;34.75;23.25;;;;;1.39;52.03;101832.28;5046041;28;62262;-63
2022/12/18 01:06:29;;;;;;;;;49.50;41.00;;;;;1.39;52.22;101819.41;5042076;28;47018;-63
2022/12/18 01:08:54;;;;;;;;;53.50;35.50;;;;;1.38;51.97;101826.28;5050071;28;45381;-63
2022/12/18 01:11:20;;;;;;;;;54.25;35.25;;;;;1.36;52.16;101809.84;5045230;28;45525;-63
2022/12/18 01:13:46;;;;;;;;;59.25;39.75;;;;;1.33;51.72;101810.66;5050606;28;45503;-63
2022/12/18 01:16:12;;;;;;;;;42.00;40.25;;;;;1.32;52.14;101814.06;5045773;28;65586;-63
2022/12/18 01:18:38;;;;;;;;;46.25;34.50;;;;;1.33;52.04;101809.78;5044666;28;45764;-63
2022/12/18 01:21:08;;;;;;;;;46.75;31.50;;;;;1.28;51.97;101814.81;5046689;28;45440;-63
2022/12/18 01:23:33;;;;;;;;;52.75;38.75;;;;;1.24;52.08;101807.81;5044092;28;45224;-63
2022/12/18 01:26:07;;;;;;;;;58.50;39.75;;;;;1.20;51.80;101811.13;5044884;28;48006;-63
2022/12/18 01:28:32;;;;;;;;;48.50;34.50;;;;;1.18;51.85;101807.63;5043479;28;45914;-64
2022/12/18 01:30:57;;;;;;;;;53.50;37.00;;;;;1.12;51.98;101810.06;5054594;28;47503;-63
2022/12/18 01:33:23;;;;;;;;;46.25;36.50;;;;;1.07;52.17;101817.63;5046272;28;51794;-63
2022/12/18 01:35:49;;;;;;;;;43.00;32.75;;;;;1.04;51.90;101820.13;5040113;28;45516;-63
2022/12/18 01:38:14;;;;;;;;;47.25;40.50;;;;;1.03;52.15;101818.38;5049228;28;45387;-63
2022/12/18 01:40:39;;;;;;;;;45.00;31.50;;;;;1.03;52.09;101815.81;5053699;28;45387;-63
2022/12/18 01:43:05;;;;;;;;;55.00;39.75;;;;;1.09;52.19;101818.56;5042196;28;63664;-64
2022/12/18 01:45:32;;;;;;;;;38.00;31.50;;;;;1.08;52.08;101816.81;5042513;28;64535;-63
2022/12/18 01:48:06;;;;;;;;;45.75;36.00;;;;;1.05;52.27;101811.56;5048540;28;45343;-64
2022/12/18 01:50:40;;;;;;;;;47.75;33.50;;;;;0.99;51.96;101806.22;5040648;28;45428;-64
2022/12/18 01:53:17;;;;;;;;;47.75;35.00;;;;;0.89;51.90;101807.66;5028842;28;45395;-65
2022/12/18 01:55:46;;;;;;;;;40.50;34.00;;;;;0.80;52.00;101802.22;5050019;28;46399;-65
2022/12/18 01:58:12;;;;;;;;;52.00;40.00;;;;;0.70;52.36;101803.66;5042352;28;45457;-66
2022/12/18 02:00:38;;;;;;;;;46.25;36.25;;;;;0.63;52.26;101791.41;5043364;28;45631;-66
2022/12/18 02:03:03;;;;;;;;;52.50;41.25;;;;;0.62;52.34;101787.09;5046456;28;45453;-65
2022/12/18 02:05:49;;;;;;;;;42.00;35.25;;;;;0.67;52.45;101793.22;5042393;28;66578;-65
2022/12/18 02:08:57;;;;;;;;;48.25;36.75;;;;;0.72;52.53;101783.09;5045208;28;45477;-65
2022/12/18 02:11:29;;;;;;;;;49.00;29.50;;;;;0.71;52.47;101782.22;4984568;28;45508;-65
2022/12/18 02:14:06;;;;;;;;;55.00;38.25;;;;;0.72;52.93;101778.78;5038845;28;45464;-65
2022/12/18 02:16:38;;;;;;;;;45.00;38.25;;;;;0.73;52.72;101777.97;5058289;28;45561;-67
2022/12/18 02:19:16;;;;;;;;;44.50;34.00;;;;;0.75;52.71;101778.03;5043518;28;45402;-66
2022/12/18 02:22:14;;;;;;;;;46.25;36.75;;;;;0.74;52.58;101766.88;5040549;28;45375;-65
2022/12/18 02:24:51;;;;;;;;;46.50;36.50;;;;;0.79;52.52;101768.69;5044882;28;45544;-64
2022/12/18 02:27:18;;;;;;;;;55.00;39.25;;;;;0.74;52.42;101768.53;5028258;28;47751;-64
2022/12/18 02:29:55;;;;;;;;;59.25;42.00;;;;;0.73;52.54;101767.69;5039622;28;56237;-64
2022/12/18 02:32:25;;;;;;;;;51.50;37.25;;;;;0.70;52.51;101767.56;5045249;28;45410;-65
2022/12/18 02:34:51;;;;;;;;;56.50;38.75;;;;;0.69;52.54;101765.84;5046865;28;45327;-65
2022/12/18 02:37:18;;;;;;;;;44.75;27.50;;;;;0.70;52.67;101769.28;5053039;28;67701;-64
2022/12/18 02:39:44;;;;;;;;;49.25;36.00;;;;;0.70;52.61;101767.56;5043252;28;45754;-65
2022/12/18 02:42:11;;;;;;;;;42.50;36.25;;;;;0.71;52.67;101759.03;5050571;28;45489;-64
2022/12/18 02:44:49;;;;;;;;;47.75;35.00;;;;;0.73;52.93;101751.34;5039469;28;45489;-64
2022/12/18 02:47:16;;;;;;;;;43.50;30.00;;;;;0.71;52.54;101755.59;5042656;28;46168;-66
2022/12/18 02:50:19;;;;;;;;;48.50;36.00;;;;;0.66;52.47;101746.84;5041780;28;45284;-65
2022/12/18 02:53:02;;;;;;;;;56.75;35.50;;;;;0.53;52.63;101741.31;5046695;28;47269;-64
2022/12/18 02:55:58;;;;;;;;;49.00;35.50;;;;;0.45;52.88;101739.34;5038859;28;45673;-64
2022/12/18 02:58:32;;;;;;;;;56.00;37.00;;;;;0.42;52.92;101740.09;5040796;28;45284;-62
2022/12/18 03:01:21;;;;;;;;;42.75;34.25;;;;;0.42;52.91;101739.25;5040557;28;45556;-62
2022/12/18 03:03:52;;;;;;;;;40.75;24.50;;;;;0.40;52.80;101730.59;5045323;28;45671;-63
2022/12/18 03:06:27;;;;;;;;;44.50;33.25;;;;;0.35;52.92;101728.75;5041663;28;45554;-64
2022/12/18 03:08:57;;;;;;;;;49.75;41.75;;;;;0.27;52.87;101729.34;5049804;28;46396;-64
2022/12/18 03:12:22;;;;;;;;;52.75;38.25;;;;;0.20;53.18;101723.13;5033196;28;45235;-64
2022/12/18 03:14:10;;;;;;;;;50.25;39.75;;;;;0.21;53.21;101739.44;5040725;28;45450;-63
2022/12/18 03:16:37;;;;;;;;;63.00;39.25;;;;;0.18;53.26;101735.09;5046722;28;45361;-64
2022/12/18 03:19:11;;;;;;;;;51.75;39.00;;;;;0.15;53.06;101733.28;5044440;28;45635;-65
2022/12/18 03:21:41;;;;;;;;;59.00;39.50;;;;;0.13;53.51;101742.66;5038973;28;45792;-65
2022/12/18 03:24:09;;;;;;;;;52.25;42.75;;;;;0.13;53.33;101740.06;5038941;28;45484;-65
2022/12/18 03:26:35;;;;;;;;;48.50;35.75;;;;;0.13;53.38;101742.66;5038754;28;45469;-66
2022/12/18 03:29:06;;;;;;;;;53.00;33.50;;;;;0.11;53.57;101738.28;5021857;28;47117;-64
2022/12/18 03:31:35;;;;;;;;;48.25;36.25;;;;;0.07;53.54;101734.75;5042373;28;45489;-65
2022/12/18 03:34:04;;;;;;;;;55.00;41.25;;;;;0.04;53.55;101741.50;5044864;28;45884;-65
2022/12/18 03:36:29;;;;;;;;;52.75;37.00;;;;;0.05;53.66;101735.50;5056321;28;45185;-65
2022/12/18 03:38:57;;;;;;;;;53.50;42.50;;;;;0.04;53.17;101726.06;5041401;28;69346;-65
2022/12/18 03:41:29;;;;;;;;;47.00;36.00;;;;;0.04;53.67;101729.50;5058810;28;45597;-65
2022/12/18 03:44:01;;;;;;;;;54.50;38.75;;;;;0.05;53.64;101735.50;5038432;28;45748;-65
2022/12/18 03:46:47;;;;;;;;;47.50;39.00;;;;;0.08;53.65;101739.06;5051688;28;45614;-65
2022/12/18 03:49:19;;;;;;;;;50.25;39.75;;;;;0.11;53.70;101736.59;5044257;28;47065;-65
2022/12/18 03:51:48;;;;;;;;;36.25;36.25;;;;;0.16;53.76;101739.28;5042228;28;46609;-65
2022/12/18 03:54:14;;;;;;;;;60.75;37.50;;;;;0.14;53.48;101734.13;5047198;28;45332;-65
2022/12/18 03:56:44;;;;;;;;;47.25;36.75;;;;;0.16;53.67;101726.41;5051896;28;58519;-66
2022/12/18 03:59:11;;;;;;;;;60.00;42.00;;;;;0.11;53.53;101717.69;5044658;28;46216;-65
2022/12/18 04:01:43;;;;;;;;;44.75;37.00;;;;;0.08;53.28;101707.31;5046830;28;45436;-65
2022/12/18 04:04:10;;;;;;;;;50.75;38.25;;;;;-0.03;53.53;101692.38;5057086;28;45420;-65
2022/12/18 04:06:36;;;;;;;;;54.50;38.25;;;;;-0.04;53.88;101694.91;5036878;28;57203;-65
2022/12/18 04:09:01;;;;;;;;;49.75;35.75;;;;;-0.04;54.15;101698.34;5048336;28;45482;-65
2022/12/18 04:11:27;;;;;;;;;56.50;40.75;;;;;-0.03;54.13;101702.69;5057302;28;46433;-65
2022/12/18 04:13:56;;;;;;;;;38.25;34.50;;;;;-0.02;53.73;101698.41;5041641;28;45417;-65
2022/12/18 04:16:22;;;;;;;;;49.25;39.75;;;;;-0.02;53.84;101706.13;5046990;28;45370;-65
2022/12/18 04:18:47;;;;;;;;;53.67;40.33;;;;;0.02;53.97;101708.00;5043116;28;66154;-64
2022/12/18 04:21:12;;;;;;;;;46.33;37.00;;;;;0.06;53.65;101703.81;5047569;28;60511;-65
2022/12/18 04:23:38;;;;;;;;;52.50;37.50;;;;;0.05;53.81;101720.06;5047212;28;45495;-64
2022/12/18 04:26:03;;;;;;;;;55.25;37.25;;;;;-0.04;53.87;101716.34;5048574;28;45417;-65
2022/12/18 04:28:29;;;;;;;;;52.50;42.00;;;;;-0.08;53.88;101716.22;5048412;28;45431;-65
2022/12/18 04:30:54;;;;;;;;;54.00;34.00;;;;;-0.12;54.23;101707.53;5046122;28;64621;-64
2022/12/18 04:33:19;;;;;;;;;46.00;40.00;;;;;-0.12;54.60;101702.38;5053006;28;54035;-64
2022/12/18 04:35:45;;;;;;;;;56.25;38.50;;;;;-0.08;53.91;101705.94;5056144;28;45391;-64
2022/12/18 04:38:10;;;;;;;;;52.75;38.25;;;;;-0.06;53.70;101712.00;5050104;28;46476;-64
2022/12/18 04:40:37;;;;;;;;;58.75;42.25;;;;;-0.07;53.93;101715.38;5046900;28;45498;-64
2022/12/18 04:43:03;;;;;;;;;55.25;41.75;;;;;-0.07;54.12;101715.38;5045590;28;45437;-64
2022/12/18 04:45:30;;;;;;;;;49.00;31.50;;;;;-0.05;54.10;101721.47;5043142;28;45307;-64
2022/12/18 04:48:00;;;;;;;;;52.50;39.00;;;;;-0.03;53.89;101717.25;5050400;28;46899;-64
2022/12/18 04:50:26;;;;;;;;;47.50;38.25;;;;;-0.03;53.93;101714.69;5043858;28;46248;-64
2022/12/18 04:52:51;;;;;;;;;51.00;38.75;;;;;-0.06;54.28;101725.72;5043830;28;45453;-64
2022/12/18 04:55:16;;;;;;;;;49.25;37.75;;;;;-0.04;54.13;101716.34;5041303;28;57623;-64
2022/12/18 04:57:42;;;;;;;;;52.00;34.00;;;;;0.02;54.06;101713.13;5043266;28;65419;-64
2022/12/18 05:00:08;;;;;;;;;56.67;42.67;;;;;0.01;53.99;101718.22;5040499;28;62244;-64
2022/12/18 05:02:33;;;;;;;;;58.00;41.00;;;;;0.02;54.05;101722.53;5049392;28;45615;-64
2022/12/18 05:04:58;;;;;;;;;46.75;35.25;;;;;-0.02;54.04;101724.13;5044440;28;45331;-64
2022/12/18 05:07:24;;;;;;;;;47.33;36.67;;;;;-0.03;54.12;101719.81;5042023;28;68284;-64
2022/12/18 05:09:49;;;;;;;;;57.50;38.50;;;;;-0.05;54.15;101722.34;5056152;28;45224;-64
2022/12/18 05:12:14;;;;;;;;;47.67;37.33;;;;;-0.08;54.01;101724.81;5053419;28;53460;-63
2022/12/18 05:14:40;;;;;;;;;51.50;40.25;;;;;-0.13;53.95;101723.78;5042859;28;59409;-63
2022/12/18 05:17:05;;;;;;;;;46.00;36.75;;;;;-0.16;54.15;101739.16;5045665;28;45386;-62
2022/12/18 05:19:30;;;;;;;;;56.00;41.00;;;;;-0.17;54.03;101733.94;5049787;28;56518;-62
2022/12/18 05:21:56;;;;;;;;;40.00;32.75;;;;;-0.21;54.26;101732.97;5043122;28;45647;-62
2022/12/18 05:24:21;;;;;;;;;51.75;39.50;;;;;-0.26;54.59;101731.94;5044200;28;45465;-63
2022/12/18 05:26:47;;;;;;;;;43.50;37.75;;;;;-0.28;54.84;101728.44;5035980;28;47327;-63
2022/12/18 05:29:12;;;;;;;;;45.00;36.75;;;;;-0.22;54.69;101746.63;5047701;28;59230;-66
2022/12/18 05:31:38;;;;;;;;;51.75;37.00;;;;;-0.17;54.58;101745.09;5050835;28;45455;-67
2022/12/18 05:34:04;;;;;;;;;51.50;35.25;;;;;-0.16;54.74;101743.38;5044445;28;45790;-67
2022/12/18 05:36:29;;;;;;;;;45.75;35.75;;;;;-0.10;54.43;101748.75;5044119;28;45527;-67
2022/12/18 05:38:55;;;;;;;;;53.75;38.25;;;;;-0.08;54.58;101744.53;5050096;28;45378;-67
2022/12/18 05:41:20;;;;;;;;;45.25;35.75;;;;;-0.07;54.55;101741.13;5060855;28;45370;-67
2022/12/18 05:43:45;;;;;;;;;63.33;40.00;;;;;-0.10;54.45;101752.19;5046288;28;57963;-67
2022/12/18 05:46:13;;;;;;;;;51.00;37.00;;;;;-0.14;54.17;101744.31;5050075;28;45560;-67
2022/12/18 05:48:38;;;;;;;;;49.50;39.75;;;;;-0.26;54.43;101740.53;5046462;28;45552;-67
2022/12/18 05:51:09;;;;;;;;;48.25;33.75;;;;;-0.31;54.72;101736.06;5050451;28;45341;-67
2022/12/18 05:53:35;;;;;;;;;42.25;31.25;;;;;-0.28;54.50;101731.03;5047569;28;45372;-67
2022/12/18 05:56:03;;;;;;;;;50.25;37.00;;;;;-0.25;54.81;101728.53;5054782;28;47108;-67
2022/12/18 05:58:28;;;;;;;;;46.50;33.00;;;;;-0.24;54.94;101728.59;5047903;28;45427;-67
2022/12/18 06:00:53;;;;;;;;;49.25;38.25;;;;;-0.23;54.80;101720.06;5052032;28;45440;-66
2022/12/18 06:03:19;;;;;;;;;46.50;38.25;;;;;-0.19;54.67;101713.31;5045306;28;65039;-67
2022/12/18 06:05:45;;;;;;;;;51.50;40.75;;;;;-0.15;54.55;101706.56;5050032;28;45979;-67
2022/12/18 06:08:11;;;;;;;;;58.50;40.25;;;;;-0.14;54.51;101710.88;5046649;28;45241;-67
2022/12/18 06:10:37;;;;;;;;;48.75;38.50;;;;;-0.11;54.63;101711.84;5054687;28;45430;-67
2022/12/18 06:13:02;;;;;;;;;51.00;35.50;;;;;-0.08;54.59;101713.66;5045135;28;45562;-68
2022/12/18 06:15:28;;;;;;;;;46.50;36.00;;;;;-0.09;54.58;101704.19;5040176;28;47334;-67
2022/12/18 06:17:53;;;;;;;;;42.50;32.75;;;;;-0.06;54.34;101697.44;5042475;28;68966;-68
2022/12/18 06:20:18;;;;;;;;;43.25;30.75;;;;;-0.07;54.40;101707.66;5048727;28;45488;-68
2022/12/18 06:22:44;;;;;;;;;48.75;34.75;;;;;-0.04;54.52;101707.78;5045319;28;45540;-67
2022/12/18 06:25:09;;;;;;;;;51.75;32.75;;;;;-0.02;54.59;101711.25;5049637;28;55644;-68
2022/12/18 06:27:35;;;;;;;;;63.25;41.50;;;;;-0.05;54.41;101701.75;5042686;28;48523;-68
2022/12/18 06:30:00;;;;;;;;;46.50;37.75;;;;;-0.08;54.25;101714.53;5041399;28;45304;-67
2022/12/18 06:32:26;;;;;;;;;55.25;36.25;;;;;-0.09;54.45;101711.91;5047054;28;60835;-67
2022/12/18 06:34:51;;;;;;;;;51.75;39.75;;;;;-0.10;54.46;101705.03;5043549;28;45616;-67
2022/12/18 06:37:17;;;;;;;;;48.50;38.00;;;;;-0.15;54.23;101710.00;5041138;28;62567;-67
2022/12/18 06:39:42;;;;;;;;;52.50;36.75;;;;;-0.19;54.44;101715.88;5044006;28;55774;-68
2022/12/18 06:42:08;;;;;;;;;50.00;38.25;;;;;-0.25;54.20;101706.28;5048980;28;45487;-67
2022/12/18 06:44:33;;;;;;;;;49.00;38.00;;;;;-0.30;54.32;101699.19;5042012;28;64766;-67
2022/12/18 06:46:58;;;;;;;;;47.25;36.75;;;;;-0.35;54.35;101706.78;5041137;28;58884;-67
2022/12/18 06:49:24;;;;;;;;;55.67;41.67;;;;;-0.42;54.54;101709.97;5045164;28;56845;-66
2022/12/18 06:51:49;;;;;;;;;43.50;38.25;;;;;-0.46;54.69;101710.66;5050693;28;45369;-63
2022/12/18 06:54:14;;;;;;;;;44.50;36.50;;;;;-0.46;54.68;101709.00;5050290;28;67069;-64
2022/12/18 06:56:40;;;;;;;;;40.50;28.00;;;;;-0.50;54.50;101696.84;5042807;28;48034;-65
2022/12/18 06:59:05;;;;;;;;;52.33;37.00;;;;;-0.52;54.28;101692.47;5043658;28;58123;-65
2022/12/18 07:01:30;;;;;;;;;34.75;27.00;;;;;-0.55;54.52;101692.38;5045034;28;58388;-66
2022/12/18 07:03:56;;;;;;;;;49.50;28.75;;;;;-0.55;54.59;101685.53;5049636;28;45278;-67
2022/12/18 07:06:24;;;;;;;;;42.25;31.25;;;;;-0.56;54.55;101670.94;5039855;28;45252;-67
2022/12/18 07:08:50;;;;;;;;;46.00;30.50;;;;;-0.54;54.60;101674.44;5046741;28;45296;-66
2022/12/18 07:11:16;;;;;;;;;47.25;37.00;;;;;-0.54;54.80;101674.44;5043053;28;45308;-66
2022/12/18 07:13:42;;;;;;;;;50.25;39.00;;;;;-0.56;55.13;101665.78;5042079;28;46532;-66
2022/12/18 07:16:11;;;;;;;;;49.75;37.00;;;;;-0.52;54.94;101679.63;5039760;28;45490;-66
2022/12/18 07:18:37;;;;;;;;;50.50;40.25;;;;;-0.53;54.87;101681.34;5041205;28;45213;-66
2022/12/18 07:21:07;;;;;;;;;58.50;38.00;;;;;-0.53;54.98;101675.28;5047344;28;45316;-66
2022/12/18 07:23:33;;;;;;;;;35.75;33.00;;;;;-0.52;54.83;101674.47;5041290;28;45339;-67
2022/12/18 07:26:07;;;;;;;;;44.75;36.25;;;;;-0.53;55.13;101675.28;5042297;28;45499;-67
2022/12/18 07:28:33;;;;;;;;;50.50;36.75;;;;;-0.53;54.79;101678.75;5043332;28;45465;-67
2022/12/18 07:31:09;;;;;;;;;52.25;42.25;;;;;-0.50;54.80;101685.69;5038205;28;45482;-67
2022/12/18 07:33:34;;;;;;;;;46.75;38.25;;;;;-0.45;54.87;101672.16;5045000;28;45734;-67
2022/12/18 07:36:01;;;;;;;;;44.75;37.50;;;;;-0.41;54.87;101680.84;5048746;28;45428;-67
2022/12/18 07:38:26;;;;;;;;;48.50;34.50;;;;;-0.36;54.81;101679.31;5049699;28;45299;-67
2022/12/18 07:40:52;;;;;;;;;43.25;35.50;;;;;-0.33;54.58;101683.69;5039062;28;45618;-67
2022/12/18 07:43:17;;;;;;;;;49.00;35.00;;;;;-0.24;54.70;101691.69;5043967;28;51115;-67
2022/12/18 07:45:43;;;;;;;;;51.00;39.50;;;;;-0.17;54.74;101688.50;5048182;28;56469;-67
2022/12/18 07:48:08;;;;;;;;;46.00;35.75;;;;;-0.12;54.74;101698.97;5048406;28;45332;-67
2022/12/18 07:50:34;;;;;;;;;50.00;34.67;;;;;-0.07;54.43;101695.69;5049149;28;63107;-67
2022/12/18 07:53:03;;;;;;;;;43.75;36.00;;;;;-0.04;54.28;101710.34;5053332;28;45759;-67
2022/12/18 07:55:29;;;;;;;;;58.00;34.25;;;;;-0.02;54.28;101713.84;5051011;28;45367;-67
2022/12/18 07:57:55;;;;;;;;;47.00;36.00;;;;;0.01;54.47;101700.22;5046067;28;45463;-67
2022/12/18 08:00:20;;;;;;;;;60.50;43.25;;;;;0.04;54.30;101690.03;5053621;28;64829;-67
2022/12/18 08:02:45;;;;;;;;;59.25;41.75;;;;;0.08;54.10;101697.88;5047778;28;45906;-67
2022/12/18 08:05:11;;;;;;;;;51.25;36.75;;;;;0.04;53.67;101693.47;5047933;28;59466;-67
2022/12/18 08:07:36;;;;;;;;;42.00;35.75;;;;;0.04;53.88;101682.31;5047285;28;45270;-67
2022/12/18 08:10:02;;;;;;;;;44.75;34.50;;;;;0.04;53.72;101682.31;5048181;28;63212;-67
2022/12/18 08:12:27;;;;;;;;;45.50;32.25;;;;;0.07;53.99;101682.38;5042518;28;46116;-67
2022/12/18 08:14:52;;;;;;;;;33.50;31.75;;;;;0.08;53.79;101679.84;5048345;28;53159;-67
2022/12/18 08:17:19;;;;;;;;;47.00;36.33;;;;;0.11;53.89;101677.38;5049649;28;61348;-66
2022/12/18 08:19:45;;;;;;;;;58.25;37.00;;;;;0.13;53.78;101675.72;5051371;28;45521;-66
2022/12/18 08:22:10;;;;;;;;;46.00;34.00;;;;;0.16;53.64;101685.22;5044102;28;65344;-67
2022/12/18 08:24:35;;;;;;;;;36.33;36.00;;;;;0.17;53.84;101687.84;5046601;28;68294;-66
2022/12/18 08:27:01;;;;;;;;;48.00;32.67;;;;;0.17;53.64;101698.16;5050250;28;58720;-67
2022/12/18 08:29:26;;;;;;;;;46.75;38.75;;;;;0.22;53.04;101692.28;5050337;28;45373;-68
2022/12/18 08:31:51;;;;;;;;;42.50;36.25;;;;;0.23;53.41;101694.91;5053581;28;65732;-67
2022/12/18 08:34:17;;;;;;;;;50.33;37.33;;;;;0.29;53.50;101705.38;5042481;28;66409;-68
2022/12/18 08:36:42;;;;;;;;;49.25;40.00;;;;;0.30;53.70;101709.72;5044770;28;45540;-68
2022/12/18 08:39:07;;;;;;;;;52.25;39.00;;;;;0.34;53.49;101708.13;5045422;28;45446;-69
2022/12/18 08:41:33;;;;;;;;;32.50;20.50;;;;;0.36;53.12;101711.59;5043745;28;67125;-67
2022/12/18 08:46:43;;;;;;;;;47.50;42.00;;;;;0.42;52.89;101718.63;5043489;28;45329;-67
2022/12/18 08:49:10;;;;;;;;;47.75;36.50;;;;;0.42;53.25;101716.94;5028793;28;45601;-67
2022/12/18 08:51:35;;;;;;;;;43.00;38.25;;;;;0.41;53.05;101717.78;5039386;28;46356;-67
2022/12/18 08:54:01;;;;;;;;;41.00;32.25;;;;;0.38;53.25;101721.13;5046069;28;45268;-67
2022/12/18 08:56:27;;;;;;;;;43.25;33.00;;;;;0.41;53.23;101725.50;5038241;28;45547;-67
2022/12/18 08:58:53;;;;;;;;;37.33;36.33;;;;;0.45;53.31;101739.34;5045520;28;65247;-67
2022/12/18 09:01:18;;;;;;;;;49.75;36.75;;;;;0.49;53.37;101733.44;5024347;28;45643;-67
2022/12/18 09:03:47;;;;;;;;;46.50;33.25;;;;;0.48;52.72;101734.25;5044307;28;45398;-67
2022/12/18 09:06:17;;;;;;;;;49.75;34.50;;;;;0.44;53.04;101728.16;5048880;28;45400;-66
2022/12/18 09:08:43;;;;;;;;;52.75;39.25;;;;;0.44;53.17;101719.56;5045609;28;45463;-67
2022/12/18 09:11:21;;;;;;;;;46.75;33.50;;;;;0.48;53.15;101721.38;5045577;28;46346;-66
2022/12/18 09:13:46;;;;;;;;;50.00;34.00;;;;;0.53;53.04;101715.56;5050107;28;45445;-66
2022/12/18 09:16:11;;;;;;;;;44.00;35.75;;;;;0.56;52.76;101713.06;5054240;28;45380;-66
2022/12/18 09:18:37;;;;;;;;;52.75;35.00;;;;;0.56;53.15;101712.19;5044783;28;48793;-63
2022/12/18 09:21:32;;;;;;;;;53.50;43.25;;;;;0.61;53.10;101713.22;5054297;28;46035;-66
2022/12/18 09:23:58;;;;;;;;;50.75;35.75;;;;;0.69;53.25;101713.44;5039703;28;45362;-65
2022/12/18 09:26:25;;;;;;;;;46.75;34.25;;;;;0.74;52.92;101712.75;5048715;28;45567;-65
2022/12/18 09:28:50;;;;;;;;;58.00;38.50;;;;;0.80;53.13;101718.88;5045099;28;45394;-64
2022/12/18 09:31:18;;;;;;;;;58.25;41.75;;;;;0.83;52.88;101717.28;5057825;28;46047;-67
2022/12/18 09:33:44;;;;;;;;;46.50;38.25;;;;;0.89;52.82;101706.28;5051584;28;45904;-66
2022/12/18 09:36:12;;;;;;;;;56.25;41.25;;;;;0.95;52.87;101701.28;5039753;28;45435;-68
2022/12/18 09:38:37;;;;;;;;;56.50;41.00;;;;;1.00;52.98;101697.16;5030985;28;45553;-61
2022/12/18 09:41:24;;;;;;;;;42.50;31.50;;;;;1.19;52.85;101702.78;5044626;28;46078;-61
2022/12/18 09:43:52;;;;;;;;;49.00;37.50;;;;;1.50;52.51;101699.31;5043191;28;45866;-60
2022/12/18 09:46:36;;;;;;;;;50.25;34.75;;;;;1.75;52.09;101703.41;5040395;28;45241;-61
2022/12/18 09:49:07;;;;;;;;;61.25;43.00;;;;;1.97;51.87;101703.94;5049119;28;45458;-61
2022/12/18 09:51:40;;;;;;;;;43.50;37.75;;;;;2.16;51.51;101705.22;5052864;28;46449;-61
2022/12/18 09:54:22;;;;;;;;;46.75;35.25;;;;;2.29;51.48;101709.84;5047756;28;45425;-60
2022/12/18 09:56:48;;;;;;;;;53.25;40.50;;;;;2.40;51.09;101702.34;5028882;28;45574;-60
2022/12/18 09:59:25;;;;;;;;;43.00;31.50;;;;;2.48;50.83;101698.22;5053607;28;45962;-61
2022/12/18 10:01:50;;;;;;;;;51.25;38.25;;;;;2.57;50.67;101690.66;5056144;28;46353;-60
2022/12/18 10:04:16;;;;;;;;;54.00;39.75;;;;;2.62;50.51;101699.38;5053245;28;47268;-60
2022/12/18 10:06:46;;;;;;;;;44.25;29.75;;;;;2.64;50.38;101699.44;5049376;28;51678;-60
2022/12/18 10:09:24;;;;;;;;;60.25;39.50;;;;;2.66;50.54;101684.81;5050413;28;45422;-60
2022/12/18 10:11:55;;;;;;;;;50.25;36.25;;;;;2.60;49.90;101684.66;5044360;28;45495;-59
2022/12/18 10:14:32;;;;;;;;;52.25;38.00;;;;;2.55;49.94;101683.69;5046624;28;45689;-58
2022/12/18 10:17:37;;;;;;;;;42.50;38.25;;;;;2.57;50.09;101682.91;5044941;28;45379;-58
2022/12/18 10:20:13;;;;;;;;;59.00;40.50;;;;;2.60;49.95;101687.25;5047117;28;45394;-59
2022/12/18 10:23:14;;;;;;;;;58.00;40.50;;;;;2.63;49.98;101684.75;5044684;28;46206;-58
2022/12/18 10:25:45;;;;;;;;;49.75;35.25;;;;;2.66;49.38;101677.06;5028858;28;45390;-53
2022/12/18 10:28:13;;;;;;;;;52.75;39.50;;;;;2.72;49.04;101676.31;5052689;28;45494;-53
2022/12/18 10:30:40;;;;;;;;;58.50;40.00;;;;;2.73;49.88;101668.59;5057057;28;45460;-56
2022/12/18 10:33:05;;;;;;;;;60.50;39.75;;;;;2.77;50.08;101665.22;5047717;28;46310;-57
2022/12/18 10:35:30;;;;;;;;;47.75;37.75;;;;;2.81;49.43;101676.50;5047966;28;61823;-56
2022/12/18 10:38:05;;;;;;;;;44.25;35.50;;;;;2.85;49.64;101668.84;5047506;28;45447;-53
2022/12/18 10:40:30;;;;;;;;;43.75;30.25;;;;;2.85;49.21;101676.59;5043576;28;45449;-60
2022/12/18 10:43:04;;;;;;;;;55.00;39.00;;;;;2.88;49.88;101672.31;5046355;28;66738;-59
2022/12/18 10:45:29;;;;;;;;;53.75;39.25;;;;;2.93;49.90;101675.88;5042075;28;45463;-51
2022/12/18 10:47:55;;;;;;;;;54.75;39.00;;;;;2.98;49.50;101676.84;5041327;28;62720;-51
2022/12/18 10:50:32;;;;;;;;;55.50;42.00;;;;;2.98;49.40;101659.59;5051123;28;59028;-51
2022/12/18 10:53:03;;;;;;;;;54.50;41.75;;;;;3.04;49.33;101662.28;5050723;28;46003;-52
2022/12/18 10:55:34;;;;;;;;;49.50;38.50;;;;;3.07;49.78;101661.50;5061538;27;45732;-53
2022/12/18 10:58:26;;;;;;;;;50.00;35.25;;;;;3.10;49.55;101658.97;5038808;28;45363;-51
2022/12/18 11:01:21;;;;;;;;;57.25;39.75;;;;;3.10;49.44;101650.31;5050154;28;45495;-49
2022/12/18 11:04:00;;;;;;;;;52.00;38.25;;;;;3.13;49.65;101658.16;5043094;28;45474;-50
2022/12/18 11:06:26;;;;;;;;;51.75;39.00;;;;;3.16;49.21;101658.22;5050017;28;45518;-53
2022/12/18 11:09:04;;;;;;;;;55.50;38.25;;;;;3.21;49.45;101648.81;5042929;28;45505;-54
2022/12/18 11:11:29;;;;;;;;;55.50;42.25;;;;;3.25;49.50;101642.00;5040074;28;45498;-50
2022/12/18 11:14:02;;;;;;;;;58.00;39.00;;;;;3.28;49.31;101639.47;5041515;28;46143;-44
2022/12/18 11:16:30;;;;;;;;;58.25;39.25;;;;;3.27;49.59;101651.50;5040387;28;45375;-45
2022/12/18 11:19:11;;;;;;;;;61.50;42.50;;;;;3.23;49.70;101648.00;5044665;28;45287;-46
2022/12/18 11:21:41;;;;;;;;;52.50;38.50;;;;;3.23;49.21;101653.16;5043896;28;46913;-46
2022/12/18 11:24:19;;;;;;;;;52.50;37.75;;;;;3.21;49.73;101644.50;5039049;28;46110;-45
2022/12/18 11:26:45;;;;;;;;;57.25;40.25;;;;;3.20;49.60;101649.66;5039275;28;45383;-50